Time,TemperatureF,DewpointF,PressureIn,WindDirection,WindDirectionDegrees,WindSpeedMPH,WindSpeedGustMPH,Humidity,HourlyPrecipIn,Conditions,Clouds,dailyrainin,SoftwareType,DateUTC
2014-09-16 00:00:00,67.2,66.6,30.14,North,11,0.0,0.0,98,0.00,,,0.31,VWS V14.01,2014-09-16 04:00:00,
2014-09-16 00:05:00,67.3,66.7,30.14,North,11,0.0,0.0,98,0.00,,,0.00,VWS V14.01,2014-09-16 04:05:00,
2014-09-16 00:10:00,67.3,66.7,30.14,North,11,0.0,0.0,98,0.00,,,0.00,VWS V14.01,2014-09-16 04:10:00,
2014-09-16 00:15:00,67.2,66.6,30.13,North,11,0.0,0.0,98,0.00,,,0.00,VWS V14.01,2014-09-16 04:15:00,
2014-09-16 00:20:00,67.2,66.6,30.13,North,11,0.0,0.0,98,0.00,,,0.00,VWS V14.01,2014-09-16 04:20:00,
2014-09-16 00:25:00,67.2,66.6,30.13,North,11,0.0,0.0,98,0.00,,,0.00,VWS V14.01,2014-09-16 04:25:00,
2014-09-16 00:26:00,67.2,66.6,30.13,North,11,0.0,0.0,98,0.00,,,0.00,VWS V14.01,2014-09-16 04:26:00,
2014-09-16 00:31:00,67.3,66.7,30.13,NNE,12,0.0,1.0,98,0.00,,,0.00,VWS V14.01,2014-09-16 04:31:00,
2014-09-16 00:36:00,67.3,66.7,30.12,West,274,0.0,1.0,98,0.00,,,0.00,VWS V14.01,2014-09-16 04:36:00,
2014-09-16 00:41:00,67.2,66.6,30.13,West,274,0.0,0.0,98,0.00,,,0.00,VWS V14.01,2014-09-16 04:41:00,
2014-09-16 00:46:00,67.2,66.6,30.12,West,274,0.0,0.0,98,0.00,,,0.00,VWS V14.01,2014-09-16 04:46:00,
2014-09-16 00:51:00,67.2,66.6,30.13,West,275,0.0,0.0,98,0.00,,,0.00,VWS V14.01,2014-09-16 04:51:00,
2014-09-16 00:56:00,67.1,66.5,30.13,West,275,0.0,0.0,98,0.00,,,0.00,VWS V14.01,2014-09-16 04:56:00,
2014-09-16 01:01:00,67.1,66.5,30.12,West,275,0.0,0.0,98,0.00,,,0.00,VWS V14.01,2014-09-16 05:01:00,
2014-09-16 01:06:00,67.1,66.5,30.12,West,275,0.0,0.0,98,0.00,,,0.00,VWS V14.01,2014-09-16 05:06:00,
2014-09-16 01:11:00,67.1,66.5,30.12,West,275,0.0,1.0,98,0.00,,,0.00,VWS V14.01,2014-09-16 05:11:00,
2014-09-16 01:16:00,67.1,66.5,30.11,West,275,0.0,0.0,98,0.00,,,0.00,VWS V14.01,2014-09-16 05:16:00,
2014-09-16 01:21:00,67.1,66.5,30.12,West,275,0.0,0.0,98,0.00,,,0.00,VWS V14.01,2014-09-16 05:21:00,
2014-09-16 01:26:00,67.1,66.5,30.12,West,275,0.0,0.0,98,0.00,,,0.00,VWS V14.01,2014-09-16 05:26:00,
2014-09-16 01:31:00,67.2,66.6,30.11,West,274,0.0,0.0,98,0.00,,,0.00,VWS V14.01,2014-09-16 05:31:00,
2014-09-16 01:36:00,67.2,66.6,30.11,West,274,0.0,0.0,98,0.00,,,0.00,VWS V14.01,2014-09-16 05:36:00,
2014-09-16 01:41:00,67.3,66.7,30.11,SW,217,0.0,1.0,98,0.00,,,0.00,VWS V14.01,2014-09-16 05:41:00,
2014-09-16 01:46:00,67.2,66.6,30.11,SW,217,0.0,0.0,98,0.00,,,0.00,VWS V14.01,2014-09-16 05:46:00,
2014-09-16 01:51:00,67.2,66.6,30.10,SW,217,0.0,0.0,98,0.00,,,0.00,VWS V14.01,2014-09-16 05:51:00,
2014-09-16 01:56:00,67.3,66.7,30.10,SE,132,0.0,1.0,98,0.00,,,0.00,VWS V14.01,2014-09-16 05:56:00,
2014-09-16 02:01:00,67.3,66.7,30.10,SE,137,0.0,0.0,98,0.00,,,0.00,VWS V14.01,2014-09-16 06:01:00,
2014-09-16 02:06:00,67.3,66.7,30.10,ESE,118,0.0,0.0,98,0.00,,,0.00,VWS V14.01,2014-09-16 06:06:00,
2014-09-16 02:11:00,67.3,66.7,30.10,ESE,118,0.0,0.0,98,0.00,,,0.00,VWS V14.01,2014-09-16 06:11:00,
2014-09-16 02:16:00,67.3,66.7,30.10,ESE,118,1.0,1.0,98,0.00,,,0.00,VWS V14.01,2014-09-16 06:16:00,
2014-09-16 02:21:00,67.3,66.7,30.10,ESE,118,0.0,1.0,98,0.00,,,0.00,VWS V14.01,2014-09-16 06:21:00,
2014-09-16 02:25:00,67.3,66.7,30.09,NNW,338,0.0,0.0,98,0.00,,,0.00,VWS V14.01,2014-09-16 06:25:00,
2014-09-16 02:30:00,67.4,66.8,30.09,SW,221,0.0,1.0,98,0.00,,,0.00,VWS V14.01,2014-09-16 06:30:00,
2014-09-16 02:35:00,67.4,66.8,30.08,SW,221,0.0,0.0,98,0.00,,,0.00,VWS V14.01,2014-09-16 06:35:00,
2014-09-16 02:40:00,67.4,66.8,30.08,SW,221,0.0,1.0,98,0.00,,,0.00,VWS V14.01,2014-09-16 06:40:00,
2014-09-16 02:45:00,67.4,66.8,30.08,SW,221,0.0,1.0,98,0.00,,,0.00,VWS V14.01,2014-09-16 06:45:00,
2014-09-16 02:50:00,67.5,66.9,30.08,SW,220,0.0,1.0,98,0.00,,,0.00,VWS V14.01,2014-09-16 06:50:00,
2014-09-16 02:55:00,67.5,66.9,30.08,SW,220,0.0,0.0,98,0.00,,,0.00,VWS V14.01,2014-09-16 06:55:00,
2014-09-16 03:00:00,67.6,67.0,30.08,SW,221,0.0,0.0,98,0.00,,,0.00,VWS V14.01,2014-09-16 07:00:00,
2014-09-16 03:05:00,67.6,67.0,30.08,SW,221,0.0,0.0,98,0.00,,,0.00,VWS V14.01,2014-09-16 07:05:00,
2014-09-16 03:08:00,67.6,67.0,30.08,SW,221,0.0,0.0,98,0.00,,,0.00,VWS V14.01,2014-09-16 07:08:00,
2014-09-16 03:13:00,67.6,67.0,30.08,SW,221,0.0,0.0,98,0.00,,,0.00,VWS V14.01,2014-09-16 07:13:00,
2014-09-16 03:18:00,67.7,67.1,30.07,WNW,287,1.0,1.0,98,0.00,,,0.00,VWS V14.01,2014-09-16 07:18:00,
2014-09-16 03:23:00,67.7,67.1,30.07,WNW,285,1.0,1.0,98,0.00,,,0.00,VWS V14.01,2014-09-16 07:23:00,
2014-09-16 03:28:00,67.8,67.2,30.07,WNW,299,0.0,2.0,98,0.00,,,0.00,VWS V14.01,2014-09-16 07:28:00,
2014-09-16 03:33:00,67.8,67.2,30.07,WNW,285,1.0,2.0,98,0.00,,,0.00,VWS V14.01,2014-09-16 07:33:00,
2014-09-16 03:38:00,67.8,67.2,30.07,West,281,1.0,2.0,98,0.00,,,0.00,VWS V14.01,2014-09-16 07:38:00,
2014-09-16 03:43:00,67.9,67.3,30.07,WNW,302,1.0,3.0,98,0.00,,,0.00,VWS V14.01,2014-09-16 07:43:00,
2014-09-16 03:48:00,67.9,67.3,30.07,NW,304,1.0,3.0,98,0.00,,,0.00,VWS V14.01,2014-09-16 07:48:00,
2014-09-16 03:53:00,68.0,67.4,30.07,West,276,0.0,0.0,98,0.00,,,0.00,VWS V14.01,2014-09-16 07:53:00,
2014-09-16 03:58:00,67.9,67.0,30.06,SSW,199,2.0,2.0,97,0.00,,,0.00,VWS V14.01,2014-09-16 07:58:00,
2014-09-16 04:03:00,67.8,66.9,30.06,SSW,205,0.0,2.0,97,0.00,,,0.00,VWS V14.01,2014-09-16 08:03:00,
2014-09-16 04:08:00,67.7,66.8,30.06,SSW,198,0.0,1.0,97,0.00,,,0.00,VWS V14.01,2014-09-16 08:08:00,
2014-09-16 04:13:00,67.5,66.6,30.06,SW,220,0.0,0.0,97,0.00,,,0.00,VWS V14.01,2014-09-16 08:13:00,
2014-09-16 04:17:00,67.4,66.5,30.06,West,267,0.0,0.0,97,0.00,,,0.00,VWS V14.01,2014-09-16 08:17:00,
2014-09-16 04:56:00,66.8,66.2,30.05,West,270,0.0,0.0,98,0.00,,,0.00,VWS V14.01,2014-09-16 08:56:00,
2014-09-16 05:01:00,66.7,66.1,30.05,West,263,0.0,0.0,98,0.00,,,0.00,VWS V14.01,2014-09-16 09:01:00,
2014-09-16 05:06:00,66.5,65.9,30.05,West,263,0.0,0.0,98,0.00,,,0.00,VWS V14.01,2014-09-16 09:06:00,
2014-09-16 05:11:00,66.5,65.9,30.05,West,263,0.0,0.0,98,0.00,,,0.00,VWS V14.01,2014-09-16 09:11:00,
2014-09-16 05:16:00,66.5,65.9,30.05,West,263,0.0,0.0,98,0.00,,,0.00,VWS V14.01,2014-09-16 09:16:00,
2014-09-16 05:21:00,66.4,65.8,30.05,West,264,0.0,0.0,98,0.00,,,0.00,VWS V14.01,2014-09-16 09:21:00,
2014-09-16 05:26:00,66.3,65.7,30.05,West,264,0.0,0.0,98,0.00,,,0.00,VWS V14.01,2014-09-16 09:26:00,
2014-09-16 05:31:00,66.2,65.6,30.05,West,264,0.0,0.0,98,0.00,,,0.00,VWS V14.01,2014-09-16 09:31:00,
2014-09-16 05:36:00,66.1,65.5,30.05,West,264,0.0,0.0,98,0.00,,,0.00,VWS V14.01,2014-09-16 09:36:00,
2014-09-16 05:38:00,66.0,65.4,30.05,West,264,0.0,0.0,98,0.00,,,0.00,VWS V14.01,2014-09-16 09:38:00,
2014-09-16 05:43:00,65.9,65.3,30.05,West,264,0.0,0.0,98,0.00,,,0.00,VWS V14.01,2014-09-16 09:43:00,
2014-09-16 05:48:00,65.8,65.2,30.05,West,264,0.0,0.0,98,0.00,,,0.00,VWS V14.01,2014-09-16 09:48:00,
2014-09-16 05:53:00,65.6,65.0,30.05,West,264,0.0,0.0,98,0.00,,,0.00,VWS V14.01,2014-09-16 09:53:00,
2014-09-16 05:58:00,65.5,64.9,30.06,West,264,1.0,1.0,98,0.00,,,0.00,VWS V14.01,2014-09-16 09:58:00,
2014-09-16 06:03:00,65.5,64.9,30.06,WNW,298,0.0,0.0,98,0.00,,,0.00,VWS V14.01,2014-09-16 10:03:00,
2014-09-16 06:08:00,65.5,64.9,30.06,WNW,299,1.0,1.0,98,0.00,,,0.00,VWS V14.01,2014-09-16 10:08:00,
2014-09-16 06:13:00,65.6,65.0,30.06,WNW,298,0.0,0.0,98,0.00,,,0.00,VWS V14.01,2014-09-16 10:13:00,
2014-09-16 06:17:00,65.6,65.3,30.06,SW,214,1.0,2.0,99,0.00,,,0.00,VWS V14.01,2014-09-16 10:17:00,
2014-09-16 06:22:00,65.8,65.5,30.06,South,170,2.0,2.0,99,0.00,,,0.00,VWS V14.01,2014-09-16 10:22:00,
2014-09-16 06:27:00,66.0,65.7,30.06,NNW,327,1.0,4.0,99,0.00,,,0.00,VWS V14.01,2014-09-16 10:27:00,
2014-09-16 06:32:00,66.0,65.7,30.05,SSW,211,0.0,1.0,99,0.00,,,0.00,VWS V14.01,2014-09-16 10:32:00,
2014-09-16 06:37:00,65.8,65.5,30.05,SSW,211,0.0,0.0,99,0.00,,,0.00,VWS V14.01,2014-09-16 10:37:00,
2014-09-16 06:42:00,65.6,65.0,30.05,WSW,255,1.0,1.0,98,0.00,,CLR,0.00,VWS V14.01,2014-09-16 10:42:00,
2014-09-16 06:47:00,65.5,65.2,30.05,WSW,255,0.0,0.0,99,0.00,,CLR,0.00,VWS V14.01,2014-09-16 10:47:00,
2014-09-16 06:52:00,65.4,64.8,30.05,South,189,0.0,0.0,98,0.00,,CLR,0.00,VWS V14.01,2014-09-16 10:52:00,
2014-09-16 06:57:00,65.2,64.6,30.05,South,189,0.0,0.0,98,0.00,,CLR,0.00,VWS V14.01,2014-09-16 10:57:00,
2014-09-16 07:02:00,65.1,64.5,30.05,South,189,0.0,0.0,98,0.00,,,0.00,VWS V14.01,2014-09-16 11:02:00,
2014-09-16 07:07:00,65.0,64.4,30.05,South,189,0.0,0.0,98,0.00,,,0.00,VWS V14.01,2014-09-16 11:07:00,
2014-09-16 07:12:00,65.0,64.7,30.06,South,189,0.0,0.0,99,0.00,,,0.00,VWS V14.01,2014-09-16 11:12:00,
2014-09-16 07:17:00,65.0,64.7,30.06,ESE,102,0.0,1.0,99,0.00,,,0.00,VWS V14.01,2014-09-16 11:17:00,
2014-09-16 07:22:00,65.1,64.8,30.06,ESE,102,0.0,0.0,99,0.00,,,0.00,VWS V14.01,2014-09-16 11:22:00,
2014-09-16 07:27:00,65.1,64.8,30.06,East,101,0.0,0.0,99,0.00,,,0.00,VWS V14.01,2014-09-16 11:27:00,
2014-09-16 07:32:00,65.3,65.0,30.06,East,101,0.0,1.0,99,0.00,,,0.00,VWS V14.01,2014-09-16 11:32:00,
2014-09-16 07:37:00,65.4,65.1,30.06,SSE,153,1.0,1.0,99,0.00,,,0.00,VWS V14.01,2014-09-16 11:37:00,
2014-09-16 07:42:00,65.4,65.1,30.06,SSE,160,1.0,1.0,99,0.00,,,0.00,VWS V14.01,2014-09-16 11:42:00,
2014-09-16 07:47:00,65.5,65.2,30.06,SSE,167,0.0,0.0,99,0.00,,,0.00,VWS V14.01,2014-09-16 11:47:00,
2014-09-16 07:52:00,65.5,65.2,30.06,SSE,163,1.0,2.0,99,0.00,,,0.00,VWS V14.01,2014-09-16 11:52:00,
2014-09-16 07:57:00,65.6,65.3,30.06,SSW,192,0.0,2.0,99,0.00,,,0.00,VWS V14.01,2014-09-16 11:57:00,
2014-09-16 08:02:00,65.7,65.4,30.06,SSW,203,0.0,1.0,99,0.00,,,0.00,VWS V14.01,2014-09-16 12:02:00,
2014-09-16 08:07:00,65.8,65.5,30.06,South,172,1.0,2.0,99,0.00,,,0.00,VWS V14.01,2014-09-16 12:07:00,
2014-09-16 08:11:00,66.0,65.4,30.06,South,172,0.0,0.0,98,0.00,,,0.00,VWS V14.01,2014-09-16 12:11:00,
2014-09-16 08:16:00,66.3,65.7,30.06,South,172,0.0,0.0,98,0.00,,,0.00,VWS V14.01,2014-09-16 12:16:00,
2014-09-16 08:21:00,66.6,66.0,30.06,SE,127,0.0,0.0,98,0.00,,,0.00,VWS V14.01,2014-09-16 12:21:00,
2014-09-16 08:26:00,66.7,65.8,30.05,SSE,161,0.0,0.0,97,0.00,,,0.00,VWS V14.01,2014-09-16 12:26:00,
2014-09-16 08:31:00,67.0,65.8,30.05,ESE,105,0.0,0.0,96,0.00,,,0.00,VWS V14.01,2014-09-16 12:31:00,
2014-09-16 08:36:00,67.3,66.1,30.05,ESE,105,0.0,0.0,96,0.00,,,0.00,VWS V14.01,2014-09-16 12:36:00,
2014-09-16 08:41:00,67.5,66.3,30.05,ESE,113,0.0,0.0,96,0.00,,,0.00,VWS V14.01,2014-09-16 12:41:00,
2014-09-16 08:46:00,68.0,66.5,30.05,SSW,195,0.0,0.0,95,0.00,,,0.00,VWS V14.01,2014-09-16 12:46:00,
2014-09-16 08:51:00,68.6,67.1,30.05,SSW,195,0.0,0.0,95,0.00,,,0.00,VWS V14.01,2014-09-16 12:51:00,
2014-09-16 08:56:00,69.2,67.4,30.05,SSW,195,0.0,0.0,94,0.00,,,0.00,VWS V14.01,2014-09-16 12:56:00,
2014-09-16 09:01:00,69.5,67.7,30.05,SSW,195,0.0,0.0,94,0.00,,CLR,0.00,VWS V14.01,2014-09-16 13:01:00,
2014-09-16 09:06:00,70.1,68.0,30.05,SW,236,0.0,1.0,93,0.00,,CLR,0.00,VWS V14.01,2014-09-16 13:06:00,
2014-09-16 09:11:00,70.8,67.7,30.05,West,262,0.0,1.0,90,0.00,,CLR,0.00,VWS V14.01,2014-09-16 13:11:00,
2014-09-16 09:16:00,71.3,67.2,30.05,West,275,2.0,2.0,87,0.00,,CLR,0.00,VWS V14.01,2014-09-16 13:16:00,
2014-09-16 09:21:00,71.8,67.4,30.05,West,266,1.0,2.0,86,0.00,,SCT004,0.00,VWS V14.01,2014-09-16 13:21:00,
2014-09-16 09:26:00,72.5,68.8,30.05,SSW,205,0.0,0.0,88,0.00,,SCT004,0.00,VWS V14.01,2014-09-16 13:26:00,
2014-09-16 09:31:00,73.0,68.2,30.05,West,266,0.0,0.0,85,0.00,,SCT004,0.00,VWS V14.01,2014-09-16 13:31:00,
2014-09-16 09:36:00,73.2,67.7,30.05,WSW,251,2.0,3.0,83,0.00,,SCT004,0.00,VWS V14.01,2014-09-16 13:36:00,
2014-09-16 09:41:00,73.2,67.7,30.05,WNW,287,0.0,1.0,83,0.00,,SCT005,0.00,VWS V14.01,2014-09-16 13:41:00,
2014-09-16 09:46:00,73.2,68.1,30.05,West,278,0.0,0.0,84,0.00,,SCT005,0.00,VWS V14.01,2014-09-16 13:46:00,
2014-09-16 09:51:00,73.5,68.4,30.05,WSW,250,0.0,0.0,84,0.00,,SCT005,0.00,VWS V14.01,2014-09-16 13:51:00,
2014-09-16 09:56:00,74.0,68.2,30.05,WSW,245,1.0,3.0,82,0.00,,SCT005,0.00,VWS V14.01,2014-09-16 13:56:00,
2014-09-16 10:01:00,74.1,67.9,30.06,WNW,292,1.0,1.0,81,0.00,,SCT005,0.00,VWS V14.01,2014-09-16 14:01:00,
2014-09-16 10:06:00,74.5,68.3,30.06,NW,320,0.0,1.0,81,0.00,,CLR,0.00,VWS V14.01,2014-09-16 14:06:00,
2014-09-16 10:11:00,74.6,68.0,30.05,West,278,1.0,1.0,80,0.00,,CLR,0.00,VWS V14.01,2014-09-16 14:11:00,
2014-09-16 10:16:00,74.7,68.1,30.05,West,276,2.0,2.0,80,0.00,,CLR,0.00,VWS V14.01,2014-09-16 14:16:00,
2014-09-16 10:21:00,74.7,68.1,30.05,West,263,0.0,1.0,80,0.00,,CLR,0.00,VWS V14.01,2014-09-16 14:21:00,
2014-09-16 10:26:00,75.2,68.6,30.05,NW,315,3.0,4.0,80,0.00,,CLR,0.00,VWS V14.01,2014-09-16 14:26:00,
2014-09-16 10:31:00,75.6,68.6,30.05,WNW,302,1.0,1.0,79,0.00,,CLR,0.00,VWS V14.01,2014-09-16 14:31:00,
2014-09-16 10:36:00,75.8,68.1,30.05,WNW,302,1.0,2.0,77,0.00,,CLR,0.00,VWS V14.01,2014-09-16 14:36:00,
2014-09-16 10:41:00,75.9,67.8,30.05,NNW,330,2.0,3.0,76,0.00,,CLR,0.00,VWS V14.01,2014-09-16 14:41:00,
2014-09-16 10:46:00,76.3,69.3,30.05,West,269,2.0,2.0,79,0.00,,CLR,0.00,VWS V14.01,2014-09-16 14:46:00,
2014-09-16 10:51:00,76.6,68.5,30.05,WNW,289,1.0,3.0,76,0.00,,CLR,0.00,VWS V14.01,2014-09-16 14:51:00,
2014-09-16 10:56:00,77.0,68.1,30.04,West,271,0.0,1.0,74,0.00,,CLR,0.00,VWS V14.01,2014-09-16 14:56:00,
2014-09-16 11:01:00,77.2,69.1,30.05,West,262,1.0,1.0,76,0.00,,CLR,0.00,VWS V14.01,2014-09-16 15:01:00,
2014-09-16 11:06:00,77.4,68.1,30.04,NW,308,3.0,4.0,73,0.00,,CLR,0.00,VWS V14.01,2014-09-16 15:06:00,
2014-09-16 11:07:00,77.4,68.1,30.04,WNW,296,3.0,3.0,73,0.00,,CLR,0.00,VWS V14.01,2014-09-16 15:07:00,
2014-09-16 11:12:00,77.5,67.4,30.04,NNW,338,2.0,4.0,71,0.00,,CLR,0.00,VWS V14.01,2014-09-16 15:12:00,
2014-09-16 11:17:00,77.6,67.5,30.04,WNW,298,0.0,1.0,71,0.00,,CLR,0.00,VWS V14.01,2014-09-16 15:17:00,
2014-09-16 11:22:00,78.3,68.5,30.04,SSW,213,2.0,3.0,72,0.00,,CLR,0.00,VWS V14.01,2014-09-16 15:22:00,
2014-09-16 11:27:00,78.7,68.1,30.04,North,7,1.0,1.0,70,0.00,,CLR,0.00,VWS V14.01,2014-09-16 15:27:00,
2014-09-16 11:32:00,78.6,67.6,30.04,East,95,1.0,1.0,69,0.00,,CLR,0.00,VWS V14.01,2014-09-16 15:32:00,
2014-09-16 11:37:00,79.2,68.6,30.04,NNE,32,5.0,5.0,70,0.00,,CLR,0.00,VWS V14.01,2014-09-16 15:37:00,
2014-09-16 11:42:00,79.1,69.3,30.04,West,259,2.0,4.0,72,0.00,,CLR,0.00,VWS V14.01,2014-09-16 15:42:00,
2014-09-16 11:47:00,79.0,68.4,30.04,West,281,2.0,4.0,70,0.00,,CLR,0.00,VWS V14.01,2014-09-16 15:47:00,
2014-09-16 11:52:00,79.5,68.9,30.04,NNW,329,2.0,6.0,70,0.00,,CLR,0.00,VWS V14.01,2014-09-16 15:52:00,
2014-09-16 11:57:00,79.7,67.3,30.04,West,277,4.0,4.0,66,0.00,,CLR,0.00,VWS V14.01,2014-09-16 15:57:00,
2014-09-16 12:02:00,79.9,68.0,30.04,NW,307,4.0,4.0,67,0.00,,SCT060,0.00,VWS V14.01,2014-09-16 16:02:00,
2014-09-16 12:07:00,80.2,67.8,30.03,NNW,338,2.0,4.0,66,0.00,,SCT060,0.00,VWS V14.01,2014-09-16 16:07:00,